sensor_id;sensor_type;location;lat;lon;timestamp;P1;durP1;ratioP1;P2;durP2;ratioP2
12145;SDS011;6136;47.032;15.398;2023-07-08T00:00:28;5.53;;;4.07;;
12145;SDS011;6136;47.032;15.398;2023-07-08T00:02:57;6.57;;;4.87;;
12145;SDS011;6136;47.032;15.398;2023-07-08T00:05:25;5.77;;;4.40;;
12145;SDS011;6136;47.032;15.398;2023-07-08T00:07:53;5.60;;;4.40;;
12145;SDS011;6136;47.032;15.398;2023-07-08T00:10:22;7.53;;;4.90;;
12145;SDS011;6136;47.032;15.398;2023-07-08T00:12:53;5.03;;;4.47;;
12145;SDS011;6136;47.032;15.398;2023-07-08T00:15:25;6.33;;;4.00;;
12145;SDS011;6136;47.032;15.398;2023-07-08T00:17:57;6.63;;;4.30;;
12145;SDS011;6136;47.032;15.398;2023-07-08T00:20:28;6.17;;;4.17;;
12145;SDS011;6136;47.032;15.398;2023-07-08T00:23:00;4.87;;;4.07;;
12145;SDS011;6136;47.032;15.398;2023-07-08T00:25:28;5.67;;;4.33;;
12145;SDS011;6136;47.032;15.398;2023-07-08T00:27:57;5.80;;;4.10;;
12145;SDS011;6136;47.032;15.398;2023-07-08T00:30:26;5.50;;;4.77;;
12145;SDS011;6136;47.032;15.398;2023-07-08T00:32:57;6.27;;;4.33;;
12145;SDS011;6136;47.032;15.398;2023-07-08T00:35:28;6.10;;;4.50;;
12145;SDS011;6136;47.032;15.398;2023-07-08T00:38:00;7.20;;;4.57;;
12145;SDS011;6136;47.032;15.398;2023-07-08T00:40:29;5.40;;;4.43;;
12145;SDS011;6136;47.032;15.398;2023-07-08T00:43:00;6.13;;;4.40;;
12145;SDS011;6136;47.032;15.398;2023-07-08T00:45:35;4.70;;;3.80;;
12145;SDS011;6136;47.032;15.398;2023-07-08T00:48:23;5.80;;;4.33;;
12145;SDS011;6136;47.032;15.398;2023-07-08T00:50:53;8.27;;;4.23;;
12145;SDS011;6136;47.032;15.398;2023-07-08T00:53:22;6.93;;;4.83;;
12145;SDS011;6136;47.032;15.398;2023-07-08T00:55:52;5.93;;;4.47;;
12145;SDS011;6136;47.032;15.398;2023-07-08T00:58:23;6.00;;;4.60;;
12145;SDS011;6136;47.032;15.398;2023-07-08T01:00:55;5.90;;;4.20;;
12145;SDS011;6136;47.032;15.398;2023-07-08T01:03:27;11.03;;;4.17;;
12145;SDS011;6136;47.032;15.398;2023-07-08T01:05:56;5.87;;;4.37;;
12145;SDS011;6136;47.032;15.398;2023-07-08T01:08:28;4.80;;;4.30;;
12145;SDS011;6136;47.032;15.398;2023-07-08T01:11:00;6.30;;;4.67;;
12145;SDS011;6136;47.032;15.398;2023-07-08T01:13:31;9.40;;;5.27;;
12145;SDS011;6136;47.032;15.398;2023-07-08T01:16:03;9.77;;;4.50;;
12145;SDS011;6136;47.032;15.398;2023-07-08T01:18:33;6.83;;;4.50;;
12145;SDS011;6136;47.032;15.398;2023-07-08T01:21:03;7.97;;;4.53;;
12145;SDS011;6136;47.032;15.398;2023-07-08T01:23:35;6.70;;;4.87;;
12145;SDS011;6136;47.032;15.398;2023-07-08T01:26:04;9.67;;;5.27;;
12145;SDS011;6136;47.032;15.398;2023-07-08T01:28:33;6.30;;;4.70;;
12145;SDS011;6136;47.032;15.398;2023-07-08T01:31:02;8.43;;;5.33;;
12145;SDS011;6136;47.032;15.398;2023-07-08T01:33:31;7.20;;;5.03;;
12145;SDS011;6136;47.032;15.398;2023-07-08T01:36:00;6.87;;;5.03;;
12145;SDS011;6136;47.032;15.398;2023-07-08T01:38:28;8.67;;;5.30;;
12145;SDS011;6136;47.032;15.398;2023-07-08T01:40:59;8.73;;;5.83;;
12145;SDS011;6136;47.032;15.398;2023-07-08T01:43:27;8.17;;;5.27;;
12145;SDS011;6136;47.032;15.398;2023-07-08T01:45:55;7.27;;;5.00;;
12145;SDS011;6136;47.032;15.398;2023-07-08T01:48:29;9.13;;;4.63;;
12145;SDS011;6136;47.032;15.398;2023-07-08T01:51:05;7.87;;;5.47;;
12145;SDS011;6136;47.032;15.398;2023-07-08T01:53:35;7.80;;;5.00;;
12145;SDS011;6136;47.032;15.398;2023-07-08T01:56:08;10.70;;;5.47;;
12145;SDS011;6136;47.032;15.398;2023-07-08T01:58:38;6.47;;;5.10;;
12145;SDS011;6136;47.032;15.398;2023-07-08T02:01:06;7.90;;;5.50;;
12145;SDS011;6136;47.032;15.398;2023-07-08T02:03:35;6.77;;;4.87;;
12145;SDS011;6136;47.032;15.398;2023-07-08T02:06:04;7.67;;;4.97;;
12145;SDS011;6136;47.032;15.398;2023-07-08T02:08:33;8.87;;;5.07;;
12145;SDS011;6136;47.032;15.398;2023-07-08T02:11:01;6.33;;;4.87;;
12145;SDS011;6136;47.032;15.398;2023-07-08T02:13:30;7.40;;;4.77;;
12145;SDS011;6136;47.032;15.398;2023-07-08T02:15:59;6.67;;;5.13;;
12145;SDS011;6136;47.032;15.398;2023-07-08T02:18:27;5.60;;;4.97;;
12145;SDS011;6136;47.032;15.398;2023-07-08T02:20:59;6.50;;;4.77;;
12145;SDS011;6136;47.032;15.398;2023-07-08T02:23:27;7.07;;;5.03;;
12145;SDS011;6136;47.032;15.398;2023-07-08T02:25:58;6.40;;;4.73;;
12145;SDS011;6136;47.032;15.398;2023-07-08T02:28:27;7.67;;;4.90;;
12145;SDS011;6136;47.032;15.398;2023-07-08T02:30:56;6.57;;;4.73;;
12145;SDS011;6136;47.032;15.398;2023-07-08T02:33:29;6.10;;;4.23;;
12145;SDS011;6136;47.032;15.398;2023-07-08T02:35:59;7.43;;;5.17;;
12145;SDS011;6136;47.032;15.398;2023-07-08T02:38:28;6.87;;;4.03;;
12145;SDS011;6136;47.032;15.398;2023-07-08T02:40:56;6.40;;;4.50;;
12145;SDS011;6136;47.032;15.398;2023-07-08T02:43:25;8.07;;;4.50;;
12145;SDS011;6136;47.032;15.398;2023-07-08T02:45:54;7.20;;;4.27;;
12145;SDS011;6136;47.032;15.398;2023-07-08T02:48:23;6.40;;;4.27;;
12145;SDS011;6136;47.032;15.398;2023-07-08T02:50:55;7.00;;;4.80;;
12145;SDS011;6136;47.032;15.398;2023-07-08T02:53:27;7.43;;;4.30;;
12145;SDS011;6136;47.032;15.398;2023-07-08T02:55:55;5.97;;;4.60;;
12145;SDS011;6136;47.032;15.398;2023-07-08T02:58:24;8.97;;;5.43;;
12145;SDS011;6136;47.032;15.398;2023-07-08T03:00:52;6.13;;;4.97;;
12145;SDS011;6136;47.032;15.398;2023-07-08T03:03:21;5.43;;;4.40;;
12145;SDS011;6136;47.032;15.398;2023-07-08T03:05:57;6.03;;;4.27;;
12145;SDS011;6136;47.032;15.398;2023-07-08T03:08:29;5.27;;;4.13;;
12145;SDS011;6136;47.032;15.398;2023-07-08T03:10:58;7.50;;;5.43;;
12145;SDS011;6136;47.032;15.398;2023-07-08T03:13:28;5.37;;;4.20;;
12145;SDS011;6136;47.032;15.398;2023-07-08T03:15:57;8.20;;;4.80;;
12145;SDS011;6136;47.032;15.398;2023-07-08T03:18:26;7.60;;;4.90;;
12145;SDS011;6136;47.032;15.398;2023-07-08T03:20:57;6.10;;;4.40;;
12145;SDS011;6136;47.032;15.398;2023-07-08T03:23:26;6.07;;;4.90;;
12145;SDS011;6136;47.032;15.398;2023-07-08T03:25:55;5.87;;;4.60;;
12145;SDS011;6136;47.032;15.398;2023-07-08T03:28:23;5.77;;;4.53;;
12145;SDS011;6136;47.032;15.398;2023-07-08T03:30:52;4.80;;;4.07;;
12145;SDS011;6136;47.032;15.398;2023-07-08T03:33:21;5.67;;;4.40;;
12145;SDS011;6136;47.032;15.398;2023-07-08T03:35:49;6.27;;;4.83;;
12145;SDS011;6136;47.032;15.398;2023-07-08T03:38:19;6.90;;;4.83;;
12145;SDS011;6136;47.032;15.398;2023-07-08T03:40:47;6.57;;;4.53;;
12145;SDS011;6136;47.032;15.398;2023-07-08T03:43:16;6.17;;;4.30;;
12145;SDS011;6136;47.032;15.398;2023-07-08T03:45:46;8.20;;;4.80;;
12145;SDS011;6136;47.032;15.398;2023-07-08T03:48:16;6.93;;;4.43;;
12145;SDS011;6136;47.032;15.398;2023-07-08T03:50:44;5.30;;;4.07;;
12145;SDS011;6136;47.032;15.398;2023-07-08T03:53:13;5.73;;;4.47;;
12145;SDS011;6136;47.032;15.398;2023-07-08T03:55:43;4.93;;;4.13;;
12145;SDS011;6136;47.032;15.398;2023-07-08T03:58:11;8.20;;;4.27;;
12145;SDS011;6136;47.032;15.398;2023-07-08T04:00:39;7.03;;;4.80;;
12145;SDS011;6136;47.032;15.398;2023-07-08T04:03:08;6.43;;;4.83;;
12145;SDS011;6136;47.032;15.398;2023-07-08T04:05:38;9.27;;;5.13;;
12145;SDS011;6136;47.032;15.398;2023-07-08T04:08:06;6.53;;;4.20;;
12145;SDS011;6136;47.032;15.398;2023-07-08T04:10:34;6.60;;;4.93;;
12145;SDS011;6136;47.032;15.398;2023-07-08T04:13:04;8.97;;;5.40;;
12145;SDS011;6136;47.032;15.398;2023-07-08T04:15:32;8.67;;;5.07;;
12145;SDS011;6136;47.032;15.398;2023-07-08T04:18:00;7.67;;;5.20;;
12145;SDS011;6136;47.032;15.398;2023-07-08T04:20:29;8.87;;;5.07;;
12145;SDS011;6136;47.032;15.398;2023-07-08T04:22:57;6.07;;;4.77;;
12145;SDS011;6136;47.032;15.398;2023-07-08T04:25:25;5.87;;;4.70;;
12145;SDS011;6136;47.032;15.398;2023-07-08T04:27:54;7.07;;;5.00;;
12145;SDS011;6136;47.032;15.398;2023-07-08T04:30:24;7.03;;;5.17;;
12145;SDS011;6136;47.032;15.398;2023-07-08T04:32:53;8.00;;;5.20;;
12145;SDS011;6136;47.032;15.398;2023-07-08T04:35:22;8.63;;;5.90;;
12145;SDS011;6136;47.032;15.398;2023-07-08T04:37:51;9.30;;;5.70;;
12145;SDS011;6136;47.032;15.398;2023-07-08T04:40:21;8.40;;;5.57;;
12145;SDS011;6136;47.032;15.398;2023-07-08T04:42:49;7.97;;;5.07;;
12145;SDS011;6136;47.032;15.398;2023-07-08T04:45:18;7.97;;;5.63;;
12145;SDS011;6136;47.032;15.398;2023-07-08T04:47:49;8.30;;;5.87;;
12145;SDS011;6136;47.032;15.398;2023-07-08T04:50:19;8.20;;;5.43;;
12145;SDS011;6136;47.032;15.398;2023-07-08T04:52:48;9.50;;;5.80;;
12145;SDS011;6136;47.032;15.398;2023-07-08T04:55:18;7.53;;;6.33;;
12145;SDS011;6136;47.032;15.398;2023-07-08T04:57:46;13.90;;;5.60;;
12145;SDS011;6136;47.032;15.398;2023-07-08T05:00:15;11.33;;;6.47;;
12145;SDS011;6136;47.032;15.398;2023-07-08T05:02:46;8.30;;;6.10;;
12145;SDS011;6136;47.032;15.398;2023-07-08T05:05:15;8.10;;;6.50;;
12145;SDS011;6136;47.032;15.398;2023-07-08T05:07:44;7.53;;;5.83;;
12145;SDS011;6136;47.032;15.398;2023-07-08T05:10:12;9.70;;;5.93;;
12145;SDS011;6136;47.032;15.398;2023-07-08T05:12:40;9.33;;;5.87;;
12145;SDS011;6136;47.032;15.398;2023-07-08T05:15:09;8.90;;;6.33;;
12145;SDS011;6136;47.032;15.398;2023-07-08T05:17:38;9.17;;;6.27;;
12145;SDS011;6136;47.032;15.398;2023-07-08T05:20:07;11.00;;;5.67;;
12145;SDS011;6136;47.032;15.398;2023-07-08T05:22:40;6.90;;;6.20;;
12145;SDS011;6136;47.032;15.398;2023-07-08T05:25:10;10.37;;;5.87;;
12145;SDS011;6136;47.032;15.398;2023-07-08T05:27:39;11.40;;;6.23;;
12145;SDS011;6136;47.032;15.398;2023-07-08T05:30:09;10.67;;;5.90;;
12145;SDS011;6136;47.032;15.398;2023-07-08T05:32:41;7.50;;;5.87;;
12145;SDS011;6136;47.032;15.398;2023-07-08T05:35:09;9.05;;;6.18;;
12145;SDS011;6136;47.032;15.398;2023-07-08T05:37:39;7.57;;;5.80;;
12145;SDS011;6136;47.032;15.398;2023-07-08T05:40:11;7.72;;;5.03;;
12145;SDS011;6136;47.032;15.398;2023-07-08T05:42:39;7.47;;;5.63;;
12145;SDS011;6136;47.032;15.398;2023-07-08T05:45:08;6.28;;;4.80;;
12145;SDS011;6136;47.032;15.398;2023-07-08T05:47:37;9.38;;;4.95;;
12145;SDS011;6136;47.032;15.398;2023-07-08T05:50:06;8.05;;;5.47;;
12145;SDS011;6136;47.032;15.398;2023-07-08T05:52:35;7.50;;;5.18;;
12145;SDS011;6136;47.032;15.398;2023-07-08T05:55:05;7.75;;;5.05;;
12145;SDS011;6136;47.032;15.398;2023-07-08T05:57:34;8.35;;;5.07;;
12145;SDS011;6136;47.032;15.398;2023-07-08T06:00:03;6.38;;;5.03;;
12145;SDS011;6136;47.032;15.398;2023-07-08T06:02:37;8.40;;;4.60;;
12145;SDS011;6136;47.032;15.398;2023-07-08T06:05:06;6.63;;;4.70;;
12145;SDS011;6136;47.032;15.398;2023-07-08T06:07:34;7.10;;;5.07;;
12145;SDS011;6136;47.032;15.398;2023-07-08T06:10:03;6.45;;;5.05;;
12145;SDS011;6136;47.032;15.398;2023-07-08T06:12:33;8.52;;;6.00;;
12145;SDS011;6136;47.032;15.398;2023-07-08T06:15:01;7.78;;;5.40;;
12145;SDS011;6136;47.032;15.398;2023-07-08T06:17:30;8.00;;;5.50;;
12145;SDS011;6136;47.032;15.398;2023-07-08T06:19:58;6.45;;;5.13;;
12145;SDS011;6136;47.032;15.398;2023-07-08T06:22:28;6.70;;;4.78;;
12145;SDS011;6136;47.032;15.398;2023-07-08T06:25:13;12.23;;;5.00;;
12145;SDS011;6136;47.032;15.398;2023-07-08T06:27:41;9.35;;;5.43;;
12145;SDS011;6136;47.032;15.398;2023-07-08T06:30:10;7.47;;;5.05;;
12145;SDS011;6136;47.032;15.398;2023-07-08T06:32:39;8.48;;;4.72;;
12145;SDS011;6136;47.032;15.398;2023-07-08T06:35:07;7.95;;;5.43;;
12145;SDS011;6136;47.032;15.398;2023-07-08T06:37:36;5.70;;;4.95;;
12145;SDS011;6136;47.032;15.398;2023-07-08T06:40:04;7.10;;;5.05;;
12145;SDS011;6136;47.032;15.398;2023-07-08T06:42:35;6.65;;;4.80;;
12145;SDS011;6136;47.032;15.398;2023-07-08T06:45:17;6.55;;;4.95;;
12145;SDS011;6136;47.032;15.398;2023-07-08T06:47:45;8.05;;;5.20;;
12145;SDS011;6136;47.032;15.398;2023-07-08T06:50:13;6.97;;;5.45;;
12145;SDS011;6136;47.032;15.398;2023-07-08T06:52:42;7.60;;;5.35;;
12145;SDS011;6136;47.032;15.398;2023-07-08T06:55:10;6.38;;;5.30;;
12145;SDS011;6136;47.032;15.398;2023-07-08T06:57:40;10.32;;;4.97;;
12145;SDS011;6136;47.032;15.398;2023-07-08T07:00:08;5.78;;;4.72;;
12145;SDS011;6136;47.032;15.398;2023-07-08T07:02:38;5.93;;;4.68;;
12145;SDS011;6136;47.032;15.398;2023-07-08T07:05:07;7.13;;;4.85;;
12145;SDS011;6136;47.032;15.398;2023-07-08T07:07:35;8.05;;;5.35;;
12145;SDS011;6136;47.032;15.398;2023-07-08T07:10:03;6.55;;;5.43;;
12145;SDS011;6136;47.032;15.398;2023-07-08T07:12:34;6.32;;;4.97;;
12145;SDS011;6136;47.032;15.398;2023-07-08T07:15:04;6.57;;;5.10;;
12145;SDS011;6136;47.032;15.398;2023-07-08T07:17:33;6.80;;;5.05;;
12145;SDS011;6136;47.032;15.398;2023-07-08T07:20:03;8.20;;;4.78;;
12145;SDS011;6136;47.032;15.398;2023-07-08T07:22:32;6.53;;;4.68;;
12145;SDS011;6136;47.032;15.398;2023-07-08T07:25:00;6.50;;;4.70;;
12145;SDS011;6136;47.032;15.398;2023-07-08T07:27:29;6.20;;;4.57;;
12145;SDS011;6136;47.032;15.398;2023-07-08T07:29:57;7.93;;;4.68;;
12145;SDS011;6136;47.032;15.398;2023-07-08T07:32:27;5.25;;;4.38;;
12145;SDS011;6136;47.032;15.398;2023-07-08T07:34:56;6.82;;;4.80;;
12145;SDS011;6136;47.032;15.398;2023-07-08T07:37:25;6.68;;;5.10;;
12145;SDS011;6136;47.032;15.398;2023-07-08T07:39:53;8.82;;;5.20;;
12145;SDS011;6136;47.032;15.398;2023-07-08T07:42:21;6.53;;;5.05;;
12145;SDS011;6136;47.032;15.398;2023-07-08T07:44:50;5.68;;;4.57;;
12145;SDS011;6136;47.032;15.398;2023-07-08T07:47:18;5.85;;;4.25;;
12145;SDS011;6136;47.032;15.398;2023-07-08T07:49:47;6.28;;;4.45;;
12145;SDS011;6136;47.032;15.398;2023-07-08T07:52:15;5.80;;;4.65;;
12145;SDS011;6136;47.032;15.398;2023-07-08T07:54:49;5.13;;;4.38;;
12145;SDS011;6136;47.032;15.398;2023-07-08T07:57:17;4.97;;;4.00;;
12145;SDS011;6136;47.032;15.398;2023-07-08T07:59:46;4.72;;;4.20;;
12145;SDS011;6136;47.032;15.398;2023-07-08T08:02:15;8.05;;;4.47;;
12145;SDS011;6136;47.032;15.398;2023-07-08T08:04:43;4.85;;;3.70;;
12145;SDS011;6136;47.032;15.398;2023-07-08T08:07:13;4.90;;;4.28;;
12145;SDS011;6136;47.032;15.398;2023-07-08T08:09:41;4.75;;;3.60;;
12145;SDS011;6136;47.032;15.398;2023-07-08T08:12:10;5.18;;;4.15;;
12145;SDS011;6136;47.032;15.398;2023-07-08T08:14:38;7.78;;;4.38;;
12145;SDS011;6136;47.032;15.398;2023-07-08T08:17:07;6.78;;;4.60;;
12145;SDS011;6136;47.032;15.398;2023-07-08T08:19:35;4.05;;;3.65;;
12145;SDS011;6136;47.032;15.398;2023-07-08T08:22:03;6.82;;;4.53;;
12145;SDS011;6136;47.032;15.398;2023-07-08T08:24:33;5.20;;;3.97;;
12145;SDS011;6136;47.032;15.398;2023-07-08T08:27:01;5.38;;;4.75;;
12145;SDS011;6136;47.032;15.398;2023-07-08T08:29:30;5.78;;;3.92;;
12145;SDS011;6136;47.032;15.398;2023-07-08T08:31:58;4.97;;;3.88;;
12145;SDS011;6136;47.032;15.398;2023-07-08T08:34:26;4.43;;;3.53;;
12145;SDS011;6136;47.032;15.398;2023-07-08T08:36:54;5.13;;;4.35;;
12145;SDS011;6136;47.032;15.398;2023-07-08T08:39:22;5.10;;;3.65;;
12145;SDS011;6136;47.032;15.398;2023-07-08T08:41:54;4.70;;;3.95;;
12145;SDS011;6136;47.032;15.398;2023-07-08T08:44:24;6.72;;;3.95;;
12145;SDS011;6136;47.032;15.398;2023-07-08T08:47:00;4.53;;;3.55;;
12145;SDS011;6136;47.032;15.398;2023-07-08T08:49:35;5.25;;;3.88;;
12145;SDS011;6136;47.032;15.398;2023-07-08T08:52:10;9.45;;;3.83;;
12145;SDS011;6136;47.032;15.398;2023-07-08T08:54:38;5.80;;;4.03;;
12145;SDS011;6136;47.032;15.398;2023-07-08T08:57:12;5.53;;;3.70;;
12145;SDS011;6136;47.032;15.398;2023-07-08T08:59:48;5.22;;;4.00;;
12145;SDS011;6136;47.032;15.398;2023-07-08T09:02:23;3.55;;;3.25;;
12145;SDS011;6136;47.032;15.398;2023-07-08T09:04:58;4.78;;;3.70;;
12145;SDS011;6136;47.032;15.398;2023-07-08T09:07:31;4.65;;;3.47;;
12145;SDS011;6136;47.032;15.398;2023-07-08T09:10:04;6.22;;;4.22;;
12145;SDS011;6136;47.032;15.398;2023-07-08T09:12:39;5.18;;;4.00;;
12145;SDS011;6136;47.032;15.398;2023-07-08T09:15:12;4.68;;;3.47;;
12145;SDS011;6136;47.032;15.398;2023-07-08T09:17:41;4.88;;;3.75;;
12145;SDS011;6136;47.032;15.398;2023-07-08T09:20:17;4.47;;;3.85;;
12145;SDS011;6136;47.032;15.398;2023-07-08T09:22:51;9.32;;;4.03;;
12145;SDS011;6136;47.032;15.398;2023-07-08T09:25:26;4.30;;;3.90;;
12145;SDS011;6136;47.032;15.398;2023-07-08T09:27:59;4.93;;;3.80;;
12145;SDS011;6136;47.032;15.398;2023-07-08T09:30:27;4.50;;;3.72;;
12145;SDS011;6136;47.032;15.398;2023-07-08T09:32:57;6.80;;;4.07;;
12145;SDS011;6136;47.032;15.398;2023-07-08T09:35:38;5.38;;;3.85;;
12145;SDS011;6136;47.032;15.398;2023-07-08T09:38:12;4.78;;;3.80;;
12145;SDS011;6136;47.032;15.398;2023-07-08T09:40:45;4.68;;;3.33;;
12145;SDS011;6136;47.032;15.398;2023-07-08T09:43:19;6.60;;;3.75;;
12145;SDS011;6136;47.032;15.398;2023-07-08T09:45:57;4.63;;;3.90;;
12145;SDS011;6136;47.032;15.398;2023-07-08T09:48:27;5.10;;;3.38;;
12145;SDS011;6136;47.032;15.398;2023-07-08T09:50:57;3.97;;;3.67;;
12145;SDS011;6136;47.032;15.398;2023-07-08T09:53:26;4.15;;;3.67;;
12145;SDS011;6136;47.032;15.398;2023-07-08T09:55:56;5.00;;;3.35;;
12145;SDS011;6136;47.032;15.398;2023-07-08T09:58:29;5.88;;;3.38;;
12145;SDS011;6136;47.032;15.398;2023-07-08T10:01:00;3.90;;;2.97;;
12145;SDS011;6136;47.032;15.398;2023-07-08T10:03:36;4.28;;;3.67;;
12145;SDS011;6136;47.032;15.398;2023-07-08T10:06:14;5.00;;;3.80;;
12145;SDS011;6136;47.032;15.398;2023-07-08T10:08:45;6.82;;;3.40;;
12145;SDS011;6136;47.032;15.398;2023-07-08T10:11:17;4.35;;;3.92;;
12145;SDS011;6136;47.032;15.398;2023-07-08T10:13:54;4.55;;;3.53;;
12145;SDS011;6136;47.032;15.398;2023-07-08T10:16:38;4.13;;;3.30;;
12145;SDS011;6136;47.032;15.398;2023-07-08T10:19:09;4.47;;;3.80;;
12145;SDS011;6136;47.032;15.398;2023-07-08T10:21:43;4.43;;;3.40;;
12145;SDS011;6136;47.032;15.398;2023-07-08T10:24:23;4.47;;;3.83;;
12145;SDS011;6136;47.032;15.398;2023-07-08T10:27:05;4.00;;;3.60;;
12145;SDS011;6136;47.032;15.398;2023-07-08T10:29:44;3.55;;;3.22;;
12145;SDS011;6136;47.032;15.398;2023-07-08T10:32:18;4.18;;;3.53;;
12145;SDS011;6136;47.032;15.398;2023-07-08T10:34:58;7.28;;;3.55;;
12145;SDS011;6136;47.032;15.398;2023-07-08T10:37:33;4.53;;;3.75;;
12145;SDS011;6136;47.032;15.398;2023-07-08T10:40:21;3.78;;;3.42;;
12145;SDS011;6136;47.032;15.398;2023-07-08T10:43:07;5.22;;;3.80;;
12145;SDS011;6136;47.032;15.398;2023-07-08T10:46:11;4.47;;;3.65;;
12145;SDS011;6136;47.032;15.398;2023-07-08T10:49:04;4.40;;;3.78;;
12145;SDS011;6136;47.032;15.398;2023-07-08T10:51:55;4.07;;;3.67;;
12145;SDS011;6136;47.032;15.398;2023-07-08T10:54:42;4.82;;;3.60;;
12145;SDS011;6136;47.032;15.398;2023-07-08T10:57:38;5.60;;;3.88;;
12145;SDS011;6136;47.032;15.398;2023-07-08T11:00:20;5.32;;;3.80;;
12145;SDS011;6136;47.032;15.398;2023-07-08T11:03:03;4.25;;;3.85;;
12145;SDS011;6136;47.032;15.398;2023-07-08T11:05:50;4.53;;;3.88;;
12145;SDS011;6136;47.032;15.398;2023-07-08T11:08:26;5.50;;;4.03;;
12145;SDS011;6136;47.032;15.398;2023-07-08T11:10:58;4.97;;;3.60;;
12145;SDS011;6136;47.032;15.398;2023-07-08T11:13:42;6.78;;;3.75;;
12145;SDS011;6136;47.032;15.398;2023-07-08T11:16:16;5.72;;;3.95;;
12145;SDS011;6136;47.032;15.398;2023-07-08T11:18:53;4.57;;;3.65;;
12145;SDS011;6136;47.032;15.398;2023-07-08T11:21:26;7.07;;;3.38;;
12145;SDS011;6136;47.032;15.398;2023-07-08T11:23:59;4.00;;;3.40;;
12145;SDS011;6136;47.032;15.398;2023-07-08T11:26:32;4.78;;;3.63;;
12145;SDS011;6136;47.032;15.398;2023-07-08T11:29:09;6.10;;;3.88;;
12145;SDS011;6136;47.032;15.398;2023-07-08T11:31:44;6.32;;;3.70;;
12145;SDS011;6136;47.032;15.398;2023-07-08T11:34:16;4.75;;;3.80;;
12145;SDS011;6136;47.032;15.398;2023-07-08T11:36:45;5.03;;;4.07;;
12145;SDS011;6136;47.032;15.398;2023-07-08T11:39:26;5.80;;;4.13;;
12145;SDS011;6136;47.032;15.398;2023-07-08T11:42:03;4.15;;;3.70;;
12145;SDS011;6136;47.032;15.398;2023-07-08T11:44:41;4.05;;;3.65;;
12145;SDS011;6136;47.032;15.398;2023-07-08T11:47:15;4.43;;;3.55;;
12145;SDS011;6136;47.032;15.398;2023-07-08T11:49:48;4.45;;;3.92;;
12145;SDS011;6136;47.032;15.398;2023-07-08T11:52:17;4.40;;;3.83;;
12145;SDS011;6136;47.032;15.398;2023-07-08T11:54:47;4.25;;;3.60;;
12145;SDS011;6136;47.032;15.398;2023-07-08T11:57:24;5.05;;;3.78;;
12145;SDS011;6136;47.032;15.398;2023-07-08T12:02:50;6.28;;;4.10;;
12145;SDS011;6136;47.032;15.398;2023-07-08T12:05:34;5.13;;;3.97;;
12145;SDS011;6136;47.032;15.398;2023-07-08T12:08:11;4.40;;;3.50;;
12145;SDS011;6136;47.032;15.398;2023-07-08T12:10:41;4.38;;;3.97;;
12145;SDS011;6136;47.032;15.398;2023-07-08T12:13:16;5.38;;;3.95;;
12145;SDS011;6136;47.032;15.398;2023-07-08T12:15:46;4.82;;;3.80;;
12145;SDS011;6136;47.032;15.398;2023-07-08T12:18:14;4.63;;;3.70;;
12145;SDS011;6136;47.032;15.398;2023-07-08T12:20:49;6.95;;;3.70;;
12145;SDS011;6136;47.032;15.398;2023-07-08T12:23:20;4.88;;;4.00;;
12145;SDS011;6136;47.032;15.398;2023-07-08T12:25:50;5.03;;;4.30;;
12145;SDS011;6136;47.032;15.398;2023-07-08T12:28:19;4.65;;;3.30;;
12145;SDS011;6136;47.032;15.398;2023-07-08T12:30:48;5.22;;;4.72;;
12145;SDS011;6136;47.032;15.398;2023-07-08T12:33:17;4.75;;;3.65;;
12145;SDS011;6136;47.032;15.398;2023-07-08T12:36:01;3.95;;;3.60;;
12145;SDS011;6136;47.032;15.398;2023-07-08T12:38:31;4.88;;;4.05;;
12145;SDS011;6136;47.032;15.398;2023-07-08T12:41:01;4.72;;;4.00;;
12145;SDS011;6136;47.032;15.398;2023-07-08T12:43:36;4.70;;;4.13;;
12145;SDS011;6136;47.032;15.398;2023-07-08T12:46:04;5.07;;;3.65;;
12145;SDS011;6136;47.032;15.398;2023-07-08T12:48:33;6.20;;;4.45;;
12145;SDS011;6136;47.032;15.398;2023-07-08T12:51:04;5.03;;;3.40;;
12145;SDS011;6136;47.032;15.398;2023-07-08T12:53:34;6.32;;;4.35;;
12145;SDS011;6136;47.032;15.398;2023-07-08T12:56:03;5.63;;;4.03;;
12145;SDS011;6136;47.032;15.398;2023-07-08T12:58:34;5.53;;;3.92;;
12145;SDS011;6136;47.032;15.398;2023-07-08T13:01:06;4.25;;;3.83;;
12145;SDS011;6136;47.032;15.398;2023-07-08T13:03:37;4.93;;;4.07;;
12145;SDS011;6136;47.032;15.398;2023-07-08T13:06:11;4.10;;;3.67;;
12145;SDS011;6136;47.032;15.398;2023-07-08T13:08:43;5.93;;;4.30;;
12145;SDS011;6136;47.032;15.398;2023-07-08T13:11:12;6.18;;;3.90;;
12145;SDS011;6136;47.032;15.398;2023-07-08T13:13:44;6.07;;;3.95;;
12145;SDS011;6136;47.032;15.398;2023-07-08T13:16:17;4.35;;;3.95;;
12145;SDS011;6136;47.032;15.398;2023-07-08T13:18:45;4.93;;;3.58;;
12145;SDS011;6136;47.032;15.398;2023-07-08T13:21:16;4.40;;;4.00;;
12145;SDS011;6136;47.032;15.398;2023-07-08T13:23:45;8.30;;;4.43;;
12145;SDS011;6136;47.032;15.398;2023-07-08T13:26:14;5.18;;;4.25;;
12145;SDS011;6136;47.032;15.398;2023-07-08T13:28:43;5.07;;;4.20;;
12145;SDS011;6136;47.032;15.398;2023-07-08T13:31:13;6.22;;;4.00;;
12145;SDS011;6136;47.032;15.398;2023-07-08T13:33:46;4.43;;;4.03;;
12145;SDS011;6136;47.032;15.398;2023-07-08T13:36:18;3.97;;;3.65;;
12145;SDS011;6136;47.032;15.398;2023-07-08T13:38:47;6.13;;;4.55;;
12145;SDS011;6136;47.032;15.398;2023-07-08T13:41:17;5.45;;;4.15;;
12145;SDS011;6136;47.032;15.398;2023-07-08T13:43:48;4.90;;;4.40;;
12145;SDS011;6136;47.032;15.398;2023-07-08T13:46:30;5.60;;;4.47;;
12145;SDS011;6136;47.032;15.398;2023-07-08T13:49:01;4.25;;;3.85;;
12145;SDS011;6136;47.032;15.398;2023-07-08T13:51:38;4.28;;;3.88;;
12145;SDS011;6136;47.032;15.398;2023-07-08T13:54:12;6.85;;;3.85;;
12145;SDS011;6136;47.032;15.398;2023-07-08T13:56:43;5.03;;;3.72;;
12145;SDS011;6136;47.032;15.398;2023-07-08T13:59:14;5.90;;;3.97;;
12145;SDS011;6136;47.032;15.398;2023-07-08T14:01:45;6.65;;;3.85;;
12145;SDS011;6136;47.032;15.398;2023-07-08T14:04:14;4.55;;;3.80;;
12145;SDS011;6136;47.032;15.398;2023-07-08T14:06:47;4.95;;;3.95;;
12145;SDS011;6136;47.032;15.398;2023-07-08T14:09:16;5.28;;;4.00;;
12145;SDS011;6136;47.032;15.398;2023-07-08T14:11:46;4.20;;;3.75;;
12145;SDS011;6136;47.032;15.398;2023-07-08T14:14:15;4.35;;;3.85;;
12145;SDS011;6136;47.032;15.398;2023-07-08T14:16:44;5.28;;;3.95;;
12145;SDS011;6136;47.032;15.398;2023-07-08T14:19:15;4.78;;;4.15;;
12145;SDS011;6136;47.032;15.398;2023-07-08T14:21:53;7.30;;;4.03;;
12145;SDS011;6136;47.032;15.398;2023-07-08T14:24:23;4.82;;;3.75;;
12145;SDS011;6136;47.032;15.398;2023-07-08T14:26:52;5.32;;;4.20;;
12145;SDS011;6136;47.032;15.398;2023-07-08T14:29:21;4.95;;;3.88;;
12145;SDS011;6136;47.032;15.398;2023-07-08T14:31:49;4.63;;;4.20;;
12145;SDS011;6136;47.032;15.398;2023-07-08T14:34:20;3.88;;;3.35;;
12145;SDS011;6136;47.032;15.398;2023-07-08T14:36:52;5.13;;;4.15;;
12145;SDS011;6136;47.032;15.398;2023-07-08T14:39:20;4.10;;;3.70;;
12145;SDS011;6136;47.032;15.398;2023-07-08T14:41:49;4.45;;;3.72;;
12145;SDS011;6136;47.032;15.398;2023-07-08T14:44:21;5.30;;;4.00;;
12145;SDS011;6136;47.032;15.398;2023-07-08T14:46:51;6.18;;;3.83;;
12145;SDS011;6136;47.032;15.398;2023-07-08T14:49:21;5.45;;;4.35;;
12145;SDS011;6136;47.032;15.398;2023-07-08T14:51:52;4.90;;;4.38;;
12145;SDS011;6136;47.032;15.398;2023-07-08T14:54:20;4.97;;;3.90;;
12145;SDS011;6136;47.032;15.398;2023-07-08T14:56:49;5.97;;;4.47;;
12145;SDS011;6136;47.032;15.398;2023-07-08T14:59:18;4.35;;;3.95;;
12145;SDS011;6136;47.032;15.398;2023-07-08T15:01:48;4.72;;;3.58;;
12145;SDS011;6136;47.032;15.398;2023-07-08T15:04:17;4.13;;;3.75;;
12145;SDS011;6136;47.032;15.398;2023-07-08T15:06:46;5.10;;;4.10;;
12145;SDS011;6136;47.032;15.398;2023-07-08T15:09:16;4.78;;;4.13;;
12145;SDS011;6136;47.032;15.398;2023-07-08T15:11:44;5.25;;;3.92;;
12145;SDS011;6136;47.032;15.398;2023-07-08T15:14:16;5.85;;;4.53;;